TKY1905 EPPO-DTTJ
Flight info
| Callsign | TKY1905 |
|---|---|
| Flight time | N/A |
| Altitude | 35000 |
| Route | XIDNA DCT VAGON DCT DESEN DCT MIKOV DCT RUPET DCT GRZ DCT ALIVO DCT TORPO DCT NEKPI DCT PNZ DCT MEGAN DCT TUPAL UG728 CBN UG727 MON DCT TRIFA DCT NAKIL |
| Aircraft | B738/M-SDE2E3FGHIRWXY/LB1 |
Departure
| Time | N/A |
|---|---|
| Airport | Poznań-Ławica Airport (EPPO) |
Arrival
| Time | 2026-05-05 17:54 |
|---|---|
| Airport | Djerba Zarzis International Airport (DTTJ) |
| Time | Latitude | Longitude | Altitude | Speed | Heading |
|---|---|---|---|---|---|
| 2026-05-05 17:15 | 36.99814 | 11.23266 | 34999 ft | 418 kts | 232° |
| 2026-05-05 17:15 | 36.97871 | 11.20555 | 35003 ft | 418 kts | 232° |
| 2026-05-05 17:15 | 36.93985 | 11.15140 | 35001 ft | 418 kts | 232° |
| 2026-05-05 17:16 | 36.89698 | 11.10205 | 35006 ft | 425 kts | 217° |
| 2026-05-05 17:16 | 36.84276 | 11.07141 | 34984 ft | 436 kts | 199° |
| 2026-05-05 17:17 | 36.78358 | 11.05409 | 34991 ft | 437 kts | 198° |
| 2026-05-05 17:17 | 36.72448 | 11.03650 | 34999 ft | 436 kts | 199° |
| 2026-05-05 17:18 | 36.66553 | 11.01844 | 34995 ft | 436 kts | 199° |
| 2026-05-05 17:18 | 36.60646 | 11.00072 | 34996 ft | 437 kts | 199° |
| 2026-05-05 17:19 | 36.54735 | 10.98305 | 34994 ft | 437 kts | 198° |
| 2026-05-05 17:19 | 36.48825 | 10.96537 | 34992 ft | 437 kts | 199° |
| 2026-05-05 17:20 | 36.43910 | 10.95068 | 34991 ft | 437 kts | 199° |
| 2026-05-05 17:20 | 36.37999 | 10.93302 | 34993 ft | 437 kts | 198° |
| 2026-05-05 17:21 | 36.32078 | 10.91536 | 34991 ft | 437 kts | 198° |
| 2026-05-05 17:22 | 36.23201 | 10.88894 | 34987 ft | 437 kts | 199° |
| 2026-05-05 17:22 | 36.17287 | 10.87138 | 34995 ft | 437 kts | 198° |
| 2026-05-05 17:23 | 36.11373 | 10.85384 | 34985 ft | 437 kts | 198° |
| 2026-05-05 17:23 | 36.05453 | 10.83631 | 34987 ft | 437 kts | 198° |
| 2026-05-05 17:24 | 35.99540 | 10.81882 | 34986 ft | 437 kts | 199° |
| 2026-05-05 17:24 | 35.93623 | 10.80135 | 34993 ft | 437 kts | 198° |
| 2026-05-05 17:25 | 35.87706 | 10.78391 | 34988 ft | 437 kts | 198° |
| 2026-05-05 17:25 | 35.81836 | 10.76663 | 34990 ft | 434 kts | 199° |
| 2026-05-05 17:26 | 35.75927 | 10.75314 | 35071 ft | 436 kts | 188° |
| 2026-05-05 17:26 | 35.69823 | 10.75995 | 34687 ft | 446 kts | 174° |
| 2026-05-05 17:26 | 35.66797 | 10.76732 | 34324 ft | 441 kts | 173° |
| 2026-05-05 17:27 | 35.63798 | 10.77485 | 33912 ft | 438 kts | 173° |
| 2026-05-05 17:27 | 35.60827 | 10.78227 | 33459 ft | 434 kts | 173° |
| 2026-05-05 17:27 | 35.57874 | 10.78953 | 33021 ft | 431 kts | 174° |
| 2026-05-05 17:27 | 35.54955 | 10.79659 | 32608 ft | 427 kts | 174° |
| 2026-05-05 17:28 | 35.52052 | 10.80353 | 32194 ft | 423 kts | 174° |
| 2026-05-05 17:28 | 35.49174 | 10.81035 | 31799 ft | 420 kts | 174° |
| 2026-05-05 17:28 | 35.46315 | 10.81709 | 31400 ft | 417 kts | 174° |
| 2026-05-05 17:28 | 35.43468 | 10.82379 | 31001 ft | 414 kts | 174° |
| 2026-05-05 17:29 | 35.40654 | 10.83040 | 30607 ft | 411 kts | 174° |
| 2026-05-05 17:29 | 35.37850 | 10.83699 | 30220 ft | 409 kts | 174° |
| 2026-05-05 17:29 | 35.35063 | 10.84353 | 29808 ft | 407 kts | 174° |
| 2026-05-05 17:29 | 35.32330 | 10.84995 | 29364 ft | 404 kts | 174° |
| 2026-05-05 17:30 | 35.29545 | 10.85649 | 28952 ft | 400 kts | 174° |
| 2026-05-05 17:30 | 35.26863 | 10.86278 | 28544 ft | 396 kts | 174° |
| 2026-05-05 17:30 | 35.24166 | 10.86911 | 28154 ft | 393 kts | 174° |
| 2026-05-05 17:30 | 35.21491 | 10.87537 | 27751 ft | 390 kts | 174° |
| 2026-05-05 17:31 | 35.18837 | 10.88158 | 27357 ft | 387 kts | 174° |
| 2026-05-05 17:31 | 35.16201 | 10.88775 | 26962 ft | 384 kts | 174° |
| 2026-05-05 17:31 | 35.13582 | 10.89387 | 26584 ft | 382 kts | 174° |
| 2026-05-05 17:31 | 35.10981 | 10.89994 | 26204 ft | 379 kts | 174° |
| 2026-05-05 17:32 | 35.08399 | 10.90597 | 25819 ft | 377 kts | 174° |
| 2026-05-05 17:32 | 35.05828 | 10.91196 | 25450 ft | 375 kts | 173° |
| 2026-05-05 17:32 | 35.03272 | 10.91792 | 25076 ft | 373 kts | 173° |
| 2026-05-05 17:32 | 35.00729 | 10.92384 | 24705 ft | 371 kts | 173° |
| 2026-05-05 17:33 | 34.98194 | 10.92974 | 24326 ft | 370 kts | 173° |
| 2026-05-05 17:33 | 34.95672 | 10.93561 | 23948 ft | 369 kts | 173° |
| 2026-05-05 17:33 | 34.93155 | 10.94146 | 23568 ft | 368 kts | 173° |
| 2026-05-05 17:33 | 34.90649 | 10.94728 | 23136 ft | 366 kts | 173° |
| 2026-05-05 17:34 | 34.88147 | 10.95309 | 22725 ft | 364 kts | 173° |
| 2026-05-05 17:34 | 34.85666 | 10.95886 | 22338 ft | 362 kts | 173° |
| 2026-05-05 17:34 | 34.83198 | 10.96459 | 21960 ft | 359 kts | 173° |
| 2026-05-05 17:34 | 34.80756 | 10.97025 | 21594 ft | 357 kts | 173° |
| 2026-05-05 17:35 | 34.78324 | 10.97589 | 21228 ft | 354 kts | 173° |
| 2026-05-05 17:35 | 34.75910 | 10.98148 | 20872 ft | 352 kts | 173° |
| 2026-05-05 17:35 | 34.73511 | 10.98703 | 20513 ft | 350 kts | 173° |
| 2026-05-05 17:35 | 34.71130 | 10.99254 | 20151 ft | 348 kts | 173° |
| 2026-05-05 17:36 | 34.68757 | 10.99803 | 19796 ft | 346 kts | 173° |
| 2026-05-05 17:36 | 34.66402 | 11.00347 | 19439 ft | 344 kts | 173° |
| 2026-05-05 17:36 | 34.64051 | 11.00889 | 19087 ft | 343 kts | 173° |
| 2026-05-05 17:36 | 34.61710 | 11.01430 | 18734 ft | 341 kts | 173° |
| 2026-05-05 17:37 | 34.59381 | 11.01966 | 18372 ft | 340 kts | 173° |
| 2026-05-05 17:37 | 34.57060 | 11.02501 | 17984 ft | 339 kts | 173° |
| 2026-05-05 17:37 | 34.54744 | 11.03035 | 17594 ft | 338 kts | 173° |
| 2026-05-05 17:37 | 34.52472 | 11.03558 | 17226 ft | 336 kts | 173° |
| 2026-05-05 17:38 | 34.50183 | 11.04085 | 16860 ft | 334 kts | 172° |
| 2026-05-05 17:38 | 34.47873 | 11.04616 | 16506 ft | 332 kts | 172° |
| 2026-05-05 17:38 | 34.45643 | 11.05129 | 16163 ft | 330 kts | 172° |
| 2026-05-05 17:38 | 34.43391 | 11.05646 | 15821 ft | 328 kts | 172° |
| 2026-05-05 17:39 | 34.41149 | 11.06161 | 15476 ft | 327 kts | 172° |
| 2026-05-05 17:39 | 34.38917 | 11.06673 | 15129 ft | 326 kts | 172° |
| 2026-05-05 17:39 | 34.36697 | 11.07182 | 14783 ft | 324 kts | 172° |
| 2026-05-05 17:39 | 34.34483 | 11.07690 | 14438 ft | 323 kts | 172° |
| 2026-05-05 17:40 | 34.32275 | 11.08196 | 14087 ft | 323 kts | 172° |
| 2026-05-05 17:40 | 34.30062 | 11.08703 | 13745 ft | 323 kts | 172° |
| 2026-05-05 17:40 | 34.27860 | 11.09207 | 13351 ft | 322 kts | 172° |
| 2026-05-05 17:40 | 34.25663 | 11.09710 | 12989 ft | 321 kts | 172° |
| 2026-05-05 17:41 | 34.23479 | 11.10209 | 12635 ft | 319 kts | 172° |
| 2026-05-05 17:41 | 34.21305 | 11.10706 | 12292 ft | 317 kts | 172° |
| 2026-05-05 17:41 | 34.19129 | 11.10874 | 11927 ft | 311 kts | 192° |
| 2026-05-05 17:41 | 34.17119 | 11.10036 | 11544 ft | 305 kts | 213° |
| 2026-05-05 17:42 | 34.15470 | 11.08457 | 11207 ft | 301 kts | 224° |
| 2026-05-05 17:42 | 34.13944 | 11.06728 | 10847 ft | 300 kts | 225° |
| 2026-05-05 17:42 | 34.12438 | 11.04990 | 10508 ft | 299 kts | 225° |
| 2026-05-05 17:42 | 34.10948 | 11.03277 | 10263 ft | 291 kts | 225° |
| 2026-05-05 17:43 | 34.09500 | 11.01624 | 10135 ft | 283 kts | 225° |
| 2026-05-05 17:43 | 34.08087 | 11.00023 | 9998 ft | 275 kts | 224° |
| 2026-05-05 17:43 | 34.06703 | 10.98462 | 9778 ft | 271 kts | 224° |
| 2026-05-05 17:43 | 34.05327 | 10.96913 | 9484 ft | 270 kts | 224° |
| 2026-05-05 17:44 | 34.03960 | 10.95376 | 9188 ft | 268 kts | 224° |
| 2026-05-05 17:44 | 34.02780 | 10.93678 | 8913 ft | 263 kts | 246° |
| 2026-05-05 17:44 | 34.02444 | 10.91560 | 8804 ft | 255 kts | 271° |
| 2026-05-05 17:44 | 34.02851 | 10.89491 | 8483 ft | 258 kts | 295° |
| 2026-05-05 17:45 | 34.03739 | 10.87622 | 8234 ft | 257 kts | 297° |
| 2026-05-05 17:45 | 34.04563 | 10.85720 | 7959 ft | 256 kts | 291° |
| 2026-05-05 17:45 | 34.05199 | 10.83725 | 7689 ft | 254 kts | 285° |
| 2026-05-05 17:45 | 34.05640 | 10.81668 | 7411 ft | 253 kts | 279° |
| 2026-05-05 17:46 | 34.05903 | 10.79578 | 7148 ft | 251 kts | 274° |
| 2026-05-05 17:46 | 34.06000 | 10.77479 | 6877 ft | 251 kts | 269° |
| 2026-05-05 17:46 | 34.05939 | 10.75381 | 6607 ft | 250 kts | 263° |
| 2026-05-05 17:46 | 34.05719 | 10.73310 | 6346 ft | 249 kts | 258° |
| 2026-05-05 17:47 | 34.05343 | 10.71302 | 6065 ft | 248 kts | 253° |
| 2026-05-05 17:47 | 34.04807 | 10.69324 | 5788 ft | 248 kts | 247° |
| 2026-05-05 17:47 | 34.04119 | 10.67424 | 5520 ft | 247 kts | 242° |
| 2026-05-05 17:47 | 34.03288 | 10.65612 | 5247 ft | 247 kts | 237° |
| 2026-05-05 17:48 | 34.02320 | 10.63903 | 4985 ft | 246 kts | 231° |
| 2026-05-05 17:48 | 34.01228 | 10.62318 | 4717 ft | 245 kts | 225° |
| 2026-05-05 17:48 | 34.00026 | 10.60874 | 4458 ft | 243 kts | 220° |
| 2026-05-05 17:48 | 33.98726 | 10.59579 | 4197 ft | 241 kts | 215° |
| 2026-05-05 17:49 | 33.97348 | 10.58447 | 3936 ft | 240 kts | 209° |
| 2026-05-05 17:49 | 33.95912 | 10.57488 | 3811 ft | 232 kts | 204° |
| 2026-05-05 17:49 | 33.94443 | 10.56701 | 3704 ft | 230 kts | 199° |
| 2026-05-05 17:49 | 33.92932 | 10.56072 | 3611 ft | 230 kts | 194° |
| 2026-05-05 17:50 | 33.91395 | 10.55586 | 3498 ft | 225 kts | 190° |
| 2026-05-05 17:50 | 33.89877 | 10.55348 | 3382 ft | 215 kts | 174° |
| 2026-05-05 17:50 | 33.88546 | 10.56004 | 3119 ft | 209 kts | 132° |
| 2026-05-05 17:50 | 33.87882 | 10.57526 | 2946 ft | 208 kts | 108° |
| 2026-05-05 17:51 | 33.87468 | 10.59185 | 2684 ft | 205 kts | 105° |
| 2026-05-05 17:51 | 33.87263 | 10.60871 | 2424 ft | 202 kts | 96° |
| 2026-05-05 17:51 | 33.87194 | 10.62541 | 2168 ft | 198 kts | 92° |
| 2026-05-05 17:51 | 33.87215 | 10.64176 | 1907 ft | 193 kts | 89° |
| 2026-05-05 17:52 | 33.87256 | 10.65768 | 1657 ft | 186 kts | 88° |
| 2026-05-05 17:52 | 33.87293 | 10.67269 | 1436 ft | 173 kts | 89° |
| 2026-05-05 17:52 | 33.87326 | 10.68675 | 1200 ft | 162 kts | 89° |
| 2026-05-05 17:52 | 33.87356 | 10.69972 | 1001 ft | 148 kts | 88° |
| 2026-05-05 17:53 | 33.87384 | 10.71142 | 856 ft | 136 kts | 88° |
| 2026-05-05 17:53 | 33.87411 | 10.72254 | 658 ft | 134 kts | 87° |
| 2026-05-05 17:53 | 33.87438 | 10.73376 | 488 ft | 135 kts | 88° |
| 2026-05-05 17:53 | 33.87465 | 10.74467 | 315 ft | 127 kts | 88° |
| 2026-05-05 17:54 | 33.87492 | 10.75585 | 147 ft | 134 kts | 88° |
| 2026-05-05 17:54 | 33.87519 | 10.76682 | 21 ft | 124 kts | 88° |
| 2026-05-05 17:54 | 33.87539 | 10.77508 | 21 ft | 47 kts | 89° |
| 2026-05-05 17:54 | 33.87529 | 10.77680 | 24 ft | 14 kts | 122° |
| 2026-05-05 17:55 | 33.87450 | 10.77724 | 25 ft | 10 kts | 178° |
| 2026-05-05 17:55 | 33.87382 | 10.77721 | 25 ft | 10 kts | 176° |
| 2026-05-05 17:55 | 33.87331 | 10.77724 | 27 ft | 0 kts | 179° |